sensor_id;sensor_type;location;lat;lon;timestamp;P1;durP1;ratioP1;P2;durP2;ratioP2
9888;SDS011;4983;42.112;24.738;2023-06-04T00:00:44;2.20;;;2.00;;
9888;SDS011;4983;42.112;24.738;2023-06-04T00:03:11;2.73;;;2.13;;
9888;SDS011;4983;42.112;24.738;2023-06-04T00:05:38;3.70;;;2.40;;
9888;SDS011;4983;42.112;24.738;2023-06-04T00:08:07;3.27;;;2.50;;
9888;SDS011;4983;42.112;24.738;2023-06-04T00:10:34;3.27;;;2.33;;
9888;SDS011;4983;42.112;24.738;2023-06-04T00:13:03;3.37;;;2.33;;
9888;SDS011;4983;42.112;24.738;2023-06-04T00:15:30;3.13;;;2.20;;
9888;SDS011;4983;42.112;24.738;2023-06-04T00:17:58;3.13;;;2.30;;
9888;SDS011;4983;42.112;24.738;2023-06-04T00:20:24;4.47;;;2.20;;
9888;SDS011;4983;42.112;24.738;2023-06-04T00:22:52;2.30;;;2.10;;
9888;SDS011;4983;42.112;24.738;2023-06-04T00:25:20;2.43;;;2.10;;
9888;SDS011;4983;42.112;24.738;2023-06-04T00:27:51;2.73;;;2.23;;
9888;SDS011;4983;42.112;24.738;2023-06-04T00:30:18;2.50;;;2.03;;
9888;SDS011;4983;42.112;24.738;2023-06-04T00:32:46;3.00;;;2.27;;
9888;SDS011;4983;42.112;24.738;2023-06-04T00:35:13;2.90;;;2.20;;
9888;SDS011;4983;42.112;24.738;2023-06-04T00:37:41;3.50;;;1.83;;
9888;SDS011;4983;42.112;24.738;2023-06-04T00:40:08;2.10;;;1.87;;
9888;SDS011;4983;42.112;24.738;2023-06-04T00:42:36;3.33;;;2.17;;
9888;SDS011;4983;42.112;24.738;2023-06-04T00:45:03;3.40;;;2.13;;
9888;SDS011;4983;42.112;24.738;2023-06-04T00:47:35;4.57;;;2.37;;
9888;SDS011;4983;42.112;24.738;2023-06-04T00:50:02;2.20;;;2.00;;
9888;SDS011;4983;42.112;24.738;2023-06-04T00:52:29;3.30;;;2.40;;
9888;SDS011;4983;42.112;24.738;2023-06-04T00:54:56;2.63;;;2.07;;
9888;SDS011;4983;42.112;24.738;2023-06-04T00:57:24;4.13;;;2.20;;
9888;SDS011;4983;42.112;24.738;2023-06-04T00:59:52;3.27;;;2.47;;
9888;SDS011;4983;42.112;24.738;2023-06-04T01:02:19;3.23;;;1.90;;
9888;SDS011;4983;42.112;24.738;2023-06-04T01:04:50;2.30;;;2.10;;
9888;SDS011;4983;42.112;24.738;2023-06-04T01:07:18;2.93;;;2.20;;
9888;SDS011;4983;42.112;24.738;2023-06-04T01:09:46;3.60;;;2.27;;
9888;SDS011;4983;42.112;24.738;2023-06-04T01:12:14;2.90;;;2.50;;
9888;SDS011;4983;42.112;24.738;2023-06-04T01:14:41;4.00;;;2.30;;
9888;SDS011;4983;42.112;24.738;2023-06-04T01:17:11;2.57;;;2.10;;
9888;SDS011;4983;42.112;24.738;2023-06-04T01:22:30;2.60;;;2.00;;
9888;SDS011;4983;42.112;24.738;2023-06-04T01:24:59;2.80;;;2.50;;
9888;SDS011;4983;42.112;24.738;2023-06-04T01:27:34;2.60;;;2.40;;
9888;SDS011;4983;42.112;24.738;2023-06-04T01:30:02;3.17;;;2.40;;
9888;SDS011;4983;42.112;24.738;2023-06-04T01:32:30;2.63;;;2.40;;
9888;SDS011;4983;42.112;24.738;2023-06-04T01:34:58;3.07;;;2.53;;
9888;SDS011;4983;42.112;24.738;2023-06-04T01:37:25;2.83;;;2.33;;
9888;SDS011;4983;42.112;24.738;2023-06-04T01:39:52;2.80;;;2.30;;
9888;SDS011;4983;42.112;24.738;2023-06-04T01:42:19;2.93;;;2.60;;
9888;SDS011;4983;42.112;24.738;2023-06-04T01:44:47;4.83;;;2.93;;
9888;SDS011;4983;42.112;24.738;2023-06-04T01:47:14;3.00;;;2.50;;
9888;SDS011;4983;42.112;24.738;2023-06-04T01:49:42;3.03;;;2.73;;
9888;SDS011;4983;42.112;24.738;2023-06-04T01:52:09;2.53;;;2.33;;
9888;SDS011;4983;42.112;24.738;2023-06-04T01:54:37;3.57;;;2.07;;
9888;SDS011;4983;42.112;24.738;2023-06-04T01:57:06;3.40;;;2.40;;
9888;SDS011;4983;42.112;24.738;2023-06-04T01:59:33;4.10;;;2.40;;
9888;SDS011;4983;42.112;24.738;2023-06-04T02:02:02;2.20;;;2.00;;
9888;SDS011;4983;42.112;24.738;2023-06-04T02:04:29;2.50;;;2.20;;
9888;SDS011;4983;42.112;24.738;2023-06-04T02:06:58;2.67;;;2.30;;
9888;SDS011;4983;42.112;24.738;2023-06-04T02:09:26;3.83;;;2.67;;
9888;SDS011;4983;42.112;24.738;2023-06-04T02:11:53;2.87;;;2.50;;
9888;SDS011;4983;42.112;24.738;2023-06-04T02:14:19;3.27;;;2.50;;
9888;SDS011;4983;42.112;24.738;2023-06-04T02:16:46;3.53;;;2.37;;
9888;SDS011;4983;42.112;24.738;2023-06-04T02:19:15;4.00;;;2.60;;
9888;SDS011;4983;42.112;24.738;2023-06-04T02:21:44;3.00;;;2.13;;
9888;SDS011;4983;42.112;24.738;2023-06-04T02:24:12;2.63;;;2.40;;
9888;SDS011;4983;42.112;24.738;2023-06-04T02:26:40;2.50;;;2.30;;
9888;SDS011;4983;42.112;24.738;2023-06-04T02:29:09;3.67;;;2.43;;
9888;SDS011;4983;42.112;24.738;2023-06-04T02:31:35;4.47;;;2.90;;
9888;SDS011;4983;42.112;24.738;2023-06-04T02:34:02;2.60;;;2.37;;
9888;SDS011;4983;42.112;24.738;2023-06-04T02:36:29;4.30;;;2.73;;
9888;SDS011;4983;42.112;24.738;2023-06-04T02:38:56;3.03;;;2.60;;
9888;SDS011;4983;42.112;24.738;2023-06-04T02:41:24;4.23;;;2.50;;
9888;SDS011;4983;42.112;24.738;2023-06-04T02:43:51;3.33;;;2.87;;
9888;SDS011;4983;42.112;24.738;2023-06-04T02:46:17;4.30;;;2.63;;
9888;SDS011;4983;42.112;24.738;2023-06-04T02:48:44;3.03;;;2.60;;
9888;SDS011;4983;42.112;24.738;2023-06-04T02:51:11;3.07;;;2.60;;
9888;SDS011;4983;42.112;24.738;2023-06-04T02:53:37;3.17;;;2.87;;
9888;SDS011;4983;42.112;24.738;2023-06-04T02:56:04;3.33;;;2.60;;
9888;SDS011;4983;42.112;24.738;2023-06-04T02:58:32;2.97;;;2.63;;
9888;SDS011;4983;42.112;24.738;2023-06-04T03:01:04;3.40;;;2.40;;
9888;SDS011;4983;42.112;24.738;2023-06-04T03:03:31;3.67;;;2.53;;
9888;SDS011;4983;42.112;24.738;2023-06-04T03:05:58;4.07;;;2.90;;
9888;SDS011;4983;42.112;24.738;2023-06-04T03:08:27;3.53;;;2.70;;
9888;SDS011;4983;42.112;24.738;2023-06-04T03:10:54;6.77;;;2.83;;
9888;SDS011;4983;42.112;24.738;2023-06-04T03:13:20;3.33;;;2.80;;
9888;SDS011;4983;42.112;24.738;2023-06-04T03:15:48;5.17;;;2.73;;
9888;SDS011;4983;42.112;24.738;2023-06-04T03:18:16;2.80;;;2.47;;
9888;SDS011;4983;42.112;24.738;2023-06-04T03:20:43;4.60;;;2.90;;
9888;SDS011;4983;42.112;24.738;2023-06-04T03:23:10;2.97;;;2.60;;
9888;SDS011;4983;42.112;24.738;2023-06-04T03:25:37;4.57;;;2.70;;
9888;SDS011;4983;42.112;24.738;2023-06-04T03:28:04;8.23;;;3.50;;
9888;SDS011;4983;42.112;24.738;2023-06-04T03:30:31;4.93;;;2.90;;
9888;SDS011;4983;42.112;24.738;2023-06-04T03:33:00;3.47;;;2.97;;
9888;SDS011;4983;42.112;24.738;2023-06-04T03:35:27;4.00;;;2.60;;
9888;SDS011;4983;42.112;24.738;2023-06-04T03:37:54;3.93;;;3.20;;
9888;SDS011;4983;42.112;24.738;2023-06-04T03:40:21;3.37;;;2.90;;
9888;SDS011;4983;42.112;24.738;2023-06-04T03:42:48;5.37;;;3.83;;
9888;SDS011;4983;42.112;24.738;2023-06-04T03:45:14;3.80;;;3.40;;
9888;SDS011;4983;42.112;24.738;2023-06-04T03:47:41;4.63;;;3.47;;
9888;SDS011;4983;42.112;24.738;2023-06-04T03:50:09;4.20;;;3.20;;
9888;SDS011;4983;42.112;24.738;2023-06-04T03:52:36;4.87;;;3.50;;
9888;SDS011;4983;42.112;24.738;2023-06-04T03:55:03;4.47;;;3.53;;
9888;SDS011;4983;42.112;24.738;2023-06-04T03:57:29;4.00;;;3.37;;
9888;SDS011;4983;42.112;24.738;2023-06-04T03:59:57;4.03;;;3.17;;
9888;SDS011;4983;42.112;24.738;2023-06-04T04:02:24;5.43;;;3.30;;
9888;SDS011;4983;42.112;24.738;2023-06-04T04:04:51;4.13;;;3.10;;
9888;SDS011;4983;42.112;24.738;2023-06-04T04:07:20;3.80;;;3.40;;
9888;SDS011;4983;42.112;24.738;2023-06-04T04:09:48;7.07;;;3.90;;
9888;SDS011;4983;42.112;24.738;2023-06-04T04:12:14;6.37;;;3.60;;
9888;SDS011;4983;42.112;24.738;2023-06-04T04:14:41;4.03;;;3.37;;
9888;SDS011;4983;42.112;24.738;2023-06-04T04:17:08;4.23;;;3.10;;
9888;SDS011;4983;42.112;24.738;2023-06-04T04:19:35;5.47;;;3.33;;
9888;SDS011;4983;42.112;24.738;2023-06-04T04:22:02;7.20;;;3.90;;
9888;SDS011;4983;42.112;24.738;2023-06-04T04:24:30;9.57;;;3.70;;
9888;SDS011;4983;42.112;24.738;2023-06-04T04:26:59;3.60;;;3.00;;
9888;SDS011;4983;42.112;24.738;2023-06-04T04:29:28;4.40;;;3.27;;
9888;SDS011;4983;42.112;24.738;2023-06-04T04:31:58;3.30;;;3.00;;
9888;SDS011;4983;42.112;24.738;2023-06-04T04:34:26;3.93;;;3.33;;
9888;SDS011;4983;42.112;24.738;2023-06-04T04:36:53;3.80;;;3.40;;
9888;SDS011;4983;42.112;24.738;2023-06-04T04:39:21;4.77;;;3.40;;
9888;SDS011;4983;42.112;24.738;2023-06-04T04:41:49;4.70;;;3.50;;
9888;SDS011;4983;42.112;24.738;2023-06-04T04:44:17;5.83;;;3.50;;
9888;SDS011;4983;42.112;24.738;2023-06-04T04:46:43;4.20;;;3.20;;
9888;SDS011;4983;42.112;24.738;2023-06-04T04:49:10;4.17;;;3.20;;
9888;SDS011;4983;42.112;24.738;2023-06-04T04:51:37;6.00;;;3.20;;
9888;SDS011;4983;42.112;24.738;2023-06-04T04:54:03;4.67;;;3.37;;
9888;SDS011;4983;42.112;24.738;2023-06-04T04:56:32;4.90;;;3.40;;
9888;SDS011;4983;42.112;24.738;2023-06-04T04:59:00;5.17;;;3.40;;
9888;SDS011;4983;42.112;24.738;2023-06-04T05:01:27;3.80;;;3.20;;
9888;SDS011;4983;42.112;24.738;2023-06-04T05:03:54;3.73;;;3.07;;
9888;SDS011;4983;42.112;24.738;2023-06-04T05:06:21;5.50;;;3.17;;
9888;SDS011;4983;42.112;24.738;2023-06-04T05:08:47;5.07;;;3.50;;
9888;SDS011;4983;42.112;24.738;2023-06-04T05:11:14;3.80;;;3.50;;
9888;SDS011;4983;42.112;24.738;2023-06-04T05:13:41;6.40;;;3.50;;
9888;SDS011;4983;42.112;24.738;2023-06-04T05:16:09;5.97;;;3.80;;
9888;SDS011;4983;42.112;24.738;2023-06-04T05:18:36;6.33;;;3.33;;
9888;SDS011;4983;42.112;24.738;2023-06-04T05:21:06;5.60;;;3.90;;
9888;SDS011;4983;42.112;24.738;2023-06-04T05:23:33;5.27;;;3.20;;
9888;SDS011;4983;42.112;24.738;2023-06-04T05:26:02;4.30;;;3.90;;
9888;SDS011;4983;42.112;24.738;2023-06-04T05:28:29;5.50;;;3.60;;
9888;SDS011;4983;42.112;24.738;2023-06-04T05:30:58;6.07;;;4.10;;
9888;SDS011;4983;42.112;24.738;2023-06-04T05:33:26;5.17;;;3.67;;
9888;SDS011;4983;42.112;24.738;2023-06-04T05:35:53;3.93;;;3.27;;
9888;SDS011;4983;42.112;24.738;2023-06-04T05:38:23;3.67;;;3.20;;
9888;SDS011;4983;42.112;24.738;2023-06-04T05:40:51;14.17;;;4.17;;
9888;SDS011;4983;42.112;24.738;2023-06-04T05:43:20;5.13;;;3.63;;
9888;SDS011;4983;42.112;24.738;2023-06-04T05:45:47;4.30;;;3.67;;
9888;SDS011;4983;42.112;24.738;2023-06-04T05:48:13;4.97;;;3.80;;
9888;SDS011;4983;42.112;24.738;2023-06-04T05:50:42;3.93;;;3.53;;
9888;SDS011;4983;42.112;24.738;2023-06-04T05:53:09;4.37;;;3.40;;
9888;SDS011;4983;42.112;24.738;2023-06-04T05:55:36;6.23;;;3.37;;
9888;SDS011;4983;42.112;24.738;2023-06-04T05:58:02;4.67;;;3.60;;
9888;SDS011;4983;42.112;24.738;2023-06-04T06:00:29;5.97;;;4.03;;
9888;SDS011;4983;42.112;24.738;2023-06-04T06:02:56;6.30;;;4.03;;
9888;SDS011;4983;42.112;24.738;2023-06-04T06:05:24;6.40;;;3.90;;
9888;SDS011;4983;42.112;24.738;2023-06-04T06:07:53;4.50;;;3.20;;
9888;SDS011;4983;42.112;24.738;2023-06-04T06:10:21;4.00;;;3.60;;
9888;SDS011;4983;42.112;24.738;2023-06-04T06:12:48;4.03;;;3.63;;
9888;SDS011;4983;42.112;24.738;2023-06-04T06:15:15;4.70;;;3.57;;
9888;SDS011;4983;42.112;24.738;2023-06-04T06:17:42;4.50;;;3.30;;
9888;SDS011;4983;42.112;24.738;2023-06-04T06:20:09;4.27;;;3.77;;
9888;SDS011;4983;42.112;24.738;2023-06-04T06:22:36;5.50;;;3.40;;
9888;SDS011;4983;42.112;24.738;2023-06-04T06:25:05;6.20;;;4.10;;
9888;SDS011;4983;42.112;24.738;2023-06-04T06:27:32;6.90;;;3.80;;
9888;SDS011;4983;42.112;24.738;2023-06-04T06:29:59;9.40;;;4.00;;
9888;SDS011;4983;42.112;24.738;2023-06-04T06:32:26;4.43;;;3.60;;
9888;SDS011;4983;42.112;24.738;2023-06-04T06:34:53;4.07;;;3.50;;
9888;SDS011;4983;42.112;24.738;2023-06-04T06:37:20;4.47;;;3.33;;
9888;SDS011;4983;42.112;24.738;2023-06-04T06:39:46;23.30;;;4.87;;
9888;SDS011;4983;42.112;24.738;2023-06-04T06:42:14;4.43;;;3.33;;
9888;SDS011;4983;42.112;24.738;2023-06-04T06:44:42;5.63;;;3.30;;
9888;SDS011;4983;42.112;24.738;2023-06-04T06:47:09;19.93;;;4.20;;
9888;SDS011;4983;42.112;24.738;2023-06-04T06:49:36;3.20;;;2.77;;
9888;SDS011;4983;42.112;24.738;2023-06-04T06:52:03;7.10;;;3.17;;
9888;SDS011;4983;42.112;24.738;2023-06-04T06:54:30;5.47;;;3.10;;
9888;SDS011;4983;42.112;24.738;2023-06-04T06:56:56;6.30;;;3.37;;
9888;SDS011;4983;42.112;24.738;2023-06-04T06:59:25;3.10;;;2.80;;
9888;SDS011;4983;42.112;24.738;2023-06-04T07:01:51;8.67;;;3.50;;
9888;SDS011;4983;42.112;24.738;2023-06-04T07:04:18;6.23;;;3.63;;
9888;SDS011;4983;42.112;24.738;2023-06-04T07:06:45;3.30;;;2.97;;
9888;SDS011;4983;42.112;24.738;2023-06-04T07:09:12;9.17;;;3.17;;
9888;SDS011;4983;42.112;24.738;2023-06-04T07:11:39;3.50;;;3.20;;
9888;SDS011;4983;42.112;24.738;2023-06-04T07:14:05;4.27;;;3.27;;
9888;SDS011;4983;42.112;24.738;2023-06-04T07:16:33;3.60;;;2.80;;
9888;SDS011;4983;42.112;24.738;2023-06-04T07:19:00;6.03;;;3.20;;
9888;SDS011;4983;42.112;24.738;2023-06-04T07:21:27;5.03;;;3.40;;
9888;SDS011;4983;42.112;24.738;2023-06-04T07:23:54;4.47;;;3.47;;
9888;SDS011;4983;42.112;24.738;2023-06-04T07:26:20;4.47;;;3.47;;
9888;SDS011;4983;42.112;24.738;2023-06-04T07:28:47;3.77;;;3.23;;
9888;SDS011;4983;42.112;24.738;2023-06-04T07:31:14;3.67;;;3.30;;
9888;SDS011;4983;42.112;24.738;2023-06-04T07:33:42;4.57;;;3.50;;
9888;SDS011;4983;42.112;24.738;2023-06-04T07:36:10;5.70;;;3.80;;
9888;SDS011;4983;42.112;24.738;2023-06-04T07:38:36;4.00;;;3.23;;
9888;SDS011;4983;42.112;24.738;2023-06-04T07:41:03;3.70;;;3.30;;
9888;SDS011;4983;42.112;24.738;2023-06-04T07:43:30;3.57;;;3.20;;
9888;SDS011;4983;42.112;24.738;2023-06-04T07:45:56;3.87;;;3.27;;
9888;SDS011;4983;42.112;24.738;2023-06-04T07:48:23;4.80;;;3.20;;
9888;SDS011;4983;42.112;24.738;2023-06-04T07:50:58;3.93;;;3.20;;
9888;SDS011;4983;42.112;24.738;2023-06-04T07:53:27;4.17;;;3.33;;
9888;SDS011;4983;42.112;24.738;2023-06-04T07:55:54;4.83;;;3.20;;
9888;SDS011;4983;42.112;24.738;2023-06-04T07:58:20;4.77;;;3.37;;
9888;SDS011;4983;42.112;24.738;2023-06-04T08:00:47;4.73;;;3.77;;
9888;SDS011;4983;42.112;24.738;2023-06-04T08:03:14;4.87;;;3.83;;
9888;SDS011;4983;42.112;24.738;2023-06-04T08:05:41;6.60;;;3.73;;
9888;SDS011;4983;42.112;24.738;2023-06-04T08:08:09;5.47;;;3.40;;
9888;SDS011;4983;42.112;24.738;2023-06-04T08:10:35;3.97;;;3.30;;
9888;SDS011;4983;42.112;24.738;2023-06-04T08:13:03;3.97;;;3.57;;
9888;SDS011;4983;42.112;24.738;2023-06-04T08:15:29;4.30;;;3.30;;
9888;SDS011;4983;42.112;24.738;2023-06-04T08:17:56;6.33;;;3.60;;
9888;SDS011;4983;42.112;24.738;2023-06-04T08:20:24;5.00;;;3.87;;
9888;SDS011;4983;42.112;24.738;2023-06-04T08:22:51;5.53;;;4.00;;
9888;SDS011;4983;42.112;24.738;2023-06-04T08:25:18;6.77;;;4.10;;
9888;SDS011;4983;42.112;24.738;2023-06-04T08:27:46;4.23;;;3.83;;
9888;SDS011;4983;42.112;24.738;2023-06-04T08:30:13;4.93;;;3.80;;
9888;SDS011;4983;42.112;24.738;2023-06-04T08:32:39;4.60;;;3.30;;
9888;SDS011;4983;42.112;24.738;2023-06-04T08:35:06;3.60;;;3.30;;
9888;SDS011;4983;42.112;24.738;2023-06-04T08:37:35;4.13;;;3.40;;
9888;SDS011;4983;42.112;24.738;2023-06-04T08:40:02;3.83;;;3.43;;
9888;SDS011;4983;42.112;24.738;2023-06-04T08:42:34;3.80;;;3.47;;
9888;SDS011;4983;42.112;24.738;2023-06-04T08:45:04;5.10;;;3.53;;
9888;SDS011;4983;42.112;24.738;2023-06-04T08:47:32;4.67;;;3.70;;
9888;SDS011;4983;42.112;24.738;2023-06-04T08:50:01;4.70;;;4.20;;
9888;SDS011;4983;42.112;24.738;2023-06-04T08:52:28;4.20;;;3.80;;
9888;SDS011;4983;42.112;24.738;2023-06-04T08:54:55;4.07;;;3.63;;
9888;SDS011;4983;42.112;24.738;2023-06-04T08:57:22;5.87;;;3.80;;
9888;SDS011;4983;42.112;24.738;2023-06-04T08:59:50;5.60;;;3.63;;
9888;SDS011;4983;42.112;24.738;2023-06-04T09:02:17;4.63;;;3.67;;
9888;SDS011;4983;42.112;24.738;2023-06-04T09:04:44;3.70;;;3.30;;
9888;SDS011;4983;42.112;24.738;2023-06-04T09:07:11;3.70;;;3.30;;
9888;SDS011;4983;42.112;24.738;2023-06-04T09:09:39;6.07;;;3.73;;
9888;SDS011;4983;42.112;24.738;2023-06-04T09:12:08;4.17;;;3.47;;
9888;SDS011;4983;42.112;24.738;2023-06-04T09:14:37;4.47;;;3.60;;
9888;SDS011;4983;42.112;24.738;2023-06-04T09:17:06;5.17;;;3.50;;
9888;SDS011;4983;42.112;24.738;2023-06-04T09:19:33;4.13;;;3.20;;
9888;SDS011;4983;42.112;24.738;2023-06-04T09:22:00;3.13;;;2.83;;
9888;SDS011;4983;42.112;24.738;2023-06-04T09:24:38;3.73;;;2.90;;
9888;SDS011;4983;42.112;24.738;2023-06-04T09:27:09;3.50;;;3.17;;
9888;SDS011;4983;42.112;24.738;2023-06-04T09:29:36;3.27;;;2.97;;
9888;SDS011;4983;42.112;24.738;2023-06-04T09:32:04;3.53;;;2.60;;
9888;SDS011;4983;42.112;24.738;2023-06-04T09:34:32;2.73;;;2.47;;
9888;SDS011;4983;42.112;24.738;2023-06-04T09:36:59;3.20;;;2.83;;
9888;SDS011;4983;42.112;24.738;2023-06-04T09:39:26;7.00;;;2.97;;
9888;SDS011;4983;42.112;24.738;2023-06-04T09:41:57;10.63;;;4.80;;
9888;SDS011;4983;42.112;24.738;2023-06-04T09:44:25;5.10;;;3.60;;
9888;SDS011;4983;42.112;24.738;2023-06-04T09:46:55;4.00;;;3.20;;
9888;SDS011;4983;42.112;24.738;2023-06-04T09:49:22;3.00;;;2.70;;
9888;SDS011;4983;42.112;24.738;2023-06-04T09:51:50;4.57;;;3.20;;
9888;SDS011;4983;42.112;24.738;2023-06-04T09:54:17;4.87;;;3.20;;
9888;SDS011;4983;42.112;24.738;2023-06-04T09:56:44;3.67;;;2.40;;
9888;SDS011;4983;42.112;24.738;2023-06-04T09:59:10;5.60;;;2.57;;
9888;SDS011;4983;42.112;24.738;2023-06-04T10:01:39;3.30;;;2.70;;
9888;SDS011;4983;42.112;24.738;2023-06-04T10:04:07;4.50;;;2.90;;
9888;SDS011;4983;42.112;24.738;2023-06-04T10:06:36;3.67;;;2.60;;
9888;SDS011;4983;42.112;24.738;2023-06-04T10:09:05;3.10;;;2.80;;
9888;SDS011;4983;42.112;24.738;2023-06-04T10:11:34;4.43;;;2.33;;
9888;SDS011;4983;42.112;24.738;2023-06-04T10:14:02;3.63;;;2.50;;
9888;SDS011;4983;42.112;24.738;2023-06-04T10:16:29;3.13;;;2.57;;
9888;SDS011;4983;42.112;24.738;2023-06-04T10:18:57;2.57;;;2.37;;
9888;SDS011;4983;42.112;24.738;2023-06-04T10:21:24;3.00;;;2.57;;
9888;SDS011;4983;42.112;24.738;2023-06-04T10:23:52;2.60;;;2.40;;
9888;SDS011;4983;42.112;24.738;2023-06-04T10:26:20;2.37;;;2.13;;
9888;SDS011;4983;42.112;24.738;2023-06-04T10:28:47;2.47;;;2.10;;
9888;SDS011;4983;42.112;24.738;2023-06-04T10:31:13;5.03;;;3.47;;
9888;SDS011;4983;42.112;24.738;2023-06-04T10:33:41;2.97;;;2.57;;
9888;SDS011;4983;42.112;24.738;2023-06-04T10:36:17;4.03;;;2.50;;
9888;SDS011;4983;42.112;24.738;2023-06-04T10:38:45;5.40;;;2.70;;
9888;SDS011;4983;42.112;24.738;2023-06-04T10:41:13;2.90;;;2.70;;
9888;SDS011;4983;42.112;24.738;2023-06-04T10:43:41;3.07;;;2.50;;
9888;SDS011;4983;42.112;24.738;2023-06-04T10:46:12;3.40;;;2.37;;
9888;SDS011;4983;42.112;24.738;2023-06-04T10:48:49;2.43;;;2.10;;
9888;SDS011;4983;42.112;24.738;2023-06-04T10:51:16;4.07;;;1.93;;
9888;SDS011;4983;42.112;24.738;2023-06-04T10:53:43;2.60;;;2.03;;
9888;SDS011;4983;42.112;24.738;2023-06-04T10:56:10;2.10;;;1.90;;
9888;SDS011;4983;42.112;24.738;2023-06-04T10:58:36;3.27;;;2.00;;
9888;SDS011;4983;42.112;24.738;2023-06-04T11:01:05;2.80;;;2.10;;
9888;SDS011;4983;42.112;24.738;2023-06-04T11:03:34;5.57;;;2.80;;
9888;SDS011;4983;42.112;24.738;2023-06-04T11:06:02;3.67;;;3.20;;
9888;SDS011;4983;42.112;24.738;2023-06-04T11:08:29;3.53;;;2.77;;
9888;SDS011;4983;42.112;24.738;2023-06-04T11:10:56;4.77;;;3.00;;
9888;SDS011;4983;42.112;24.738;2023-06-04T11:13:23;4.40;;;3.00;;
9888;SDS011;4983;42.112;24.738;2023-06-04T11:15:50;3.47;;;2.97;;
9888;SDS011;4983;42.112;24.738;2023-06-04T11:18:18;3.10;;;2.80;;
9888;SDS011;4983;42.112;24.738;2023-06-04T11:20:46;9.10;;;3.50;;
9888;SDS011;4983;42.112;24.738;2023-06-04T11:23:13;2.90;;;2.70;;
9888;SDS011;4983;42.112;24.738;2023-06-04T11:25:40;5.47;;;3.27;;
9888;SDS011;4983;42.112;24.738;2023-06-04T11:28:08;4.90;;;3.20;;
9888;SDS011;4983;42.112;24.738;2023-06-04T11:30:41;6.07;;;3.07;;
9888;SDS011;4983;42.112;24.738;2023-06-04T11:33:08;3.60;;;3.00;;
9888;SDS011;4983;42.112;24.738;2023-06-04T11:35:40;4.23;;;3.17;;
9888;SDS011;4983;42.112;24.738;2023-06-04T11:38:08;3.17;;;2.87;;
9888;SDS011;4983;42.112;24.738;2023-06-04T11:40:35;4.33;;;3.00;;
9888;SDS011;4983;42.112;24.738;2023-06-04T11:43:02;4.77;;;3.40;;
9888;SDS011;4983;42.112;24.738;2023-06-04T11:45:29;3.47;;;3.00;;
9888;SDS011;4983;42.112;24.738;2023-06-04T11:47:56;3.60;;;3.30;;
9888;SDS011;4983;42.112;24.738;2023-06-04T11:50:23;3.53;;;3.20;;
9888;SDS011;4983;42.112;24.738;2023-06-04T11:52:51;3.83;;;3.43;;
9888;SDS011;4983;42.112;24.738;2023-06-04T11:55:18;4.10;;;3.17;;
9888;SDS011;4983;42.112;24.738;2023-06-04T11:57:47;3.60;;;3.30;;
9888;SDS011;4983;42.112;24.738;2023-06-04T12:00:14;10.27;;;3.73;;
9888;SDS011;4983;42.112;24.738;2023-06-04T12:02:48;7.30;;;3.20;;
9888;SDS011;4983;42.112;24.738;2023-06-04T12:05:16;4.30;;;3.23;;
9888;SDS011;4983;42.112;24.738;2023-06-04T12:07:44;4.27;;;3.50;;
9888;SDS011;4983;42.112;24.738;2023-06-04T12:10:13;3.80;;;3.40;;
9888;SDS011;4983;42.112;24.738;2023-06-04T12:12:40;4.23;;;2.93;;
9888;SDS011;4983;42.112;24.738;2023-06-04T12:15:07;9.70;;;4.03;;
9888;SDS011;4983;42.112;24.738;2023-06-04T12:17:35;4.40;;;3.33;;
9888;SDS011;4983;42.112;24.738;2023-06-04T12:20:03;4.27;;;3.40;;
9888;SDS011;4983;42.112;24.738;2023-06-04T12:22:31;3.67;;;3.27;;
9888;SDS011;4983;42.112;24.738;2023-06-04T12:24:58;11.70;;;3.80;;
9888;SDS011;4983;42.112;24.738;2023-06-04T12:27:30;3.70;;;2.80;;
9888;SDS011;4983;42.112;24.738;2023-06-04T12:29:57;3.10;;;2.80;;
9888;SDS011;4983;42.112;24.738;2023-06-04T12:32:24;3.27;;;2.97;;
9888;SDS011;4983;42.112;24.738;2023-06-04T12:34:51;3.20;;;2.90;;
9888;SDS011;4983;42.112;24.738;2023-06-04T12:37:18;5.03;;;3.00;;
9888;SDS011;4983;42.112;24.738;2023-06-04T12:39:45;3.27;;;2.97;;
9888;SDS011;4983;42.112;24.738;2023-06-04T12:42:13;3.83;;;3.20;;
9888;SDS011;4983;42.112;24.738;2023-06-04T12:44:41;4.83;;;3.10;;
9888;SDS011;4983;42.112;24.738;2023-06-04T12:47:08;8.27;;;4.43;;
9888;SDS011;4983;42.112;24.738;2023-06-04T12:49:37;3.77;;;3.20;;
9888;SDS011;4983;42.112;24.738;2023-06-04T12:52:04;3.27;;;2.97;;
9888;SDS011;4983;42.112;24.738;2023-06-04T12:54:31;4.03;;;3.20;;
9888;SDS011;4983;42.112;24.738;2023-06-04T12:56:58;4.03;;;3.40;;
9888;SDS011;4983;42.112;24.738;2023-06-04T12:59:26;3.77;;;3.23;;
9888;SDS011;4983;42.112;24.738;2023-06-04T13:01:55;3.97;;;3.30;;
9888;SDS011;4983;42.112;24.738;2023-06-04T13:04:22;4.00;;;3.27;;
9888;SDS011;4983;42.112;24.738;2023-06-04T13:06:50;3.50;;;3.20;;
9888;SDS011;4983;42.112;24.738;2023-06-04T13:09:17;3.50;;;3.20;;
9888;SDS011;4983;42.112;24.738;2023-06-04T13:11:46;4.67;;;3.20;;
9888;SDS011;4983;42.112;24.738;2023-06-04T13:14:12;4.07;;;3.37;;
9888;SDS011;4983;42.112;24.738;2023-06-04T13:16:39;3.73;;;3.17;;
9888;SDS011;4983;42.112;24.738;2023-06-04T13:19:08;4.23;;;3.30;;
9888;SDS011;4983;42.112;24.738;2023-06-04T13:21:35;5.47;;;3.13;;
9888;SDS011;4983;42.112;24.738;2023-06-04T13:24:03;4.57;;;3.00;;
9888;SDS011;4983;42.112;24.738;2023-06-04T13:26:30;3.63;;;3.00;;
9888;SDS011;4983;42.112;24.738;2023-06-04T13:28:57;3.50;;;3.10;;
9888;SDS011;4983;42.112;24.738;2023-06-04T13:31:24;3.77;;;3.37;;
9888;SDS011;4983;42.112;24.738;2023-06-04T13:33:50;5.67;;;3.47;;
9888;SDS011;4983;42.112;24.738;2023-06-04T13:36:19;3.30;;;2.90;;
9888;SDS011;4983;42.112;24.738;2023-06-04T13:38:45;3.60;;;3.17;;
9888;SDS011;4983;42.112;24.738;2023-06-04T13:41:12;4.90;;;3.20;;
9888;SDS011;4983;42.112;24.738;2023-06-04T13:43:39;3.40;;;3.10;;
9888;SDS011;4983;42.112;24.738;2023-06-04T13:46:06;3.40;;;2.83;;
9888;SDS011;4983;42.112;24.738;2023-06-04T13:48:32;4.77;;;3.37;;
9888;SDS011;4983;42.112;24.738;2023-06-04T13:51:01;9.90;;;3.90;;
9888;SDS011;4983;42.112;24.738;2023-06-04T13:53:31;3.83;;;3.20;;
9888;SDS011;4983;42.112;24.738;2023-06-04T13:55:58;3.97;;;3.07;;
9888;SDS011;4983;42.112;24.738;2023-06-04T13:58:25;3.53;;;3.00;;
9888;SDS011;4983;42.112;24.738;2023-06-04T14:00:52;3.40;;;3.07;;
9888;SDS011;4983;42.112;24.738;2023-06-04T14:03:19;3.67;;;3.10;;
9888;SDS011;4983;42.112;24.738;2023-06-04T14:05:46;3.67;;;2.97;;
9888;SDS011;4983;42.112;24.738;2023-06-04T14:08:13;3.47;;;2.97;;
9888;SDS011;4983;42.112;24.738;2023-06-04T14:10:41;4.17;;;2.77;;
9888;SDS011;4983;42.112;24.738;2023-06-04T14:13:08;4.13;;;3.07;;
9888;SDS011;4983;42.112;24.738;2023-06-04T14:15:35;4.00;;;3.00;;
9888;SDS011;4983;42.112;24.738;2023-06-04T14:18:01;3.77;;;2.70;;
9888;SDS011;4983;42.112;24.738;2023-06-04T14:20:28;8.83;;;5.47;;
9888;SDS011;4983;42.112;24.738;2023-06-04T14:22:55;3.83;;;2.93;;
9888;SDS011;4983;42.112;24.738;2023-06-04T14:25:23;3.37;;;2.53;;
9888;SDS011;4983;42.112;24.738;2023-06-04T14:27:51;3.90;;;2.97;;
9888;SDS011;4983;42.112;24.738;2023-06-04T14:30:18;3.10;;;2.73;;
9888;SDS011;4983;42.112;24.738;2023-06-04T14:32:45;4.00;;;3.60;;
9888;SDS011;4983;42.112;24.738;2023-06-04T14:35:12;3.67;;;2.83;;
9888;SDS011;4983;42.112;24.738;2023-06-04T14:37:39;4.63;;;3.37;;
9888;SDS011;4983;42.112;24.738;2023-06-04T14:40:06;6.30;;;3.37;;
9888;SDS011;4983;42.112;24.738;2023-06-04T14:42:33;5.13;;;3.20;;
9888;SDS011;4983;42.112;24.738;2023-06-04T14:45:01;3.53;;;3.07;;
9888;SDS011;4983;42.112;24.738;2023-06-04T14:47:28;3.13;;;2.83;;
9888;SDS011;4983;42.112;24.738;2023-06-04T14:49:55;3.00;;;2.67;;
9888;SDS011;4983;42.112;24.738;2023-06-04T14:52:23;4.80;;;2.53;;
9888;SDS011;4983;42.112;24.738;2023-06-04T14:54:49;4.73;;;2.60;;
9888;SDS011;4983;42.112;24.738;2023-06-04T14:57:16;6.17;;;3.00;;
9888;SDS011;4983;42.112;24.738;2023-06-04T14:59:44;2.80;;;2.50;;
9888;SDS011;4983;42.112;24.738;2023-06-04T15:02:13;3.13;;;2.70;;
9888;SDS011;4983;42.112;24.738;2023-06-04T15:04:44;4.27;;;2.60;;